sensor_id;sensor_type;location;lat;lon;timestamp;temperature;humidity
939;DHT22;456;53.584;9.968;2024-01-30T00:01:00;17.00;15.50
939;DHT22;456;53.584;9.968;2024-01-30T00:03:26;17.00;15.50
939;DHT22;456;53.584;9.968;2024-01-30T00:05:52;17.00;15.50
939;DHT22;456;53.584;9.968;2024-01-30T00:08:17;17.00;15.40
939;DHT22;456;53.584;9.968;2024-01-30T00:10:43;17.00;15.50
939;DHT22;456;53.584;9.968;2024-01-30T00:13:09;17.00;15.40
939;DHT22;456;53.584;9.968;2024-01-30T00:15:35;17.00;15.40
939;DHT22;456;53.584;9.968;2024-01-30T00:18:00;17.00;15.40
939;DHT22;456;53.584;9.968;2024-01-30T00:20:26;16.90;15.30
939;DHT22;456;53.584;9.968;2024-01-30T00:22:52;16.90;15.90
939;DHT22;456;53.584;9.968;2024-01-30T00:25:17;17.00;15.40
939;DHT22;456;53.584;9.968;2024-01-30T00:27:43;16.90;15.30
939;DHT22;456;53.584;9.968;2024-01-30T00:30:09;16.90;15.30
939;DHT22;456;53.584;9.968;2024-01-30T00:32:35;16.90;15.30
939;DHT22;456;53.584;9.968;2024-01-30T00:35:01;16.90;15.30
939;DHT22;456;53.584;9.968;2024-01-30T00:37:26;16.90;15.30
939;DHT22;456;53.584;9.968;2024-01-30T00:39:52;16.90;15.30
939;DHT22;456;53.584;9.968;2024-01-30T00:42:17;16.90;15.30
939;DHT22;456;53.584;9.968;2024-01-30T00:44:43;16.90;15.30
939;DHT22;456;53.584;9.968;2024-01-30T00:47:09;16.90;15.30
939;DHT22;456;53.584;9.968;2024-01-30T00:49:34;16.90;15.30
939;DHT22;456;53.584;9.968;2024-01-30T00:52:00;16.90;15.30
939;DHT22;456;53.584;9.968;2024-01-30T00:54:26;16.90;15.30
939;DHT22;456;53.584;9.968;2024-01-30T00:56:51;16.90;15.30
939;DHT22;456;53.584;9.968;2024-01-30T00:59:17;16.90;15.30
939;DHT22;456;53.584;9.968;2024-01-30T01:01:42;16.90;15.30
939;DHT22;456;53.584;9.968;2024-01-30T01:04:08;16.90;15.30
939;DHT22;456;53.584;9.968;2024-01-30T01:06:33;16.90;15.30
939;DHT22;456;53.584;9.968;2024-01-30T01:08:59;16.90;15.30
939;DHT22;456;53.584;9.968;2024-01-30T01:11:25;16.90;15.30
939;DHT22;456;53.584;9.968;2024-01-30T01:13:50;16.90;15.80
939;DHT22;456;53.584;9.968;2024-01-30T01:16:16;16.90;15.30
939;DHT22;456;53.584;9.968;2024-01-30T01:18:41;16.90;15.30
939;DHT22;456;53.584;9.968;2024-01-30T01:21:07;16.90;15.30
939;DHT22;456;53.584;9.968;2024-01-30T01:23:32;16.90;15.30
939;DHT22;456;53.584;9.968;2024-01-30T01:25:58;16.80;15.20
939;DHT22;456;53.584;9.968;2024-01-30T01:28:25;16.90;15.30
939;DHT22;456;53.584;9.968;2024-01-30T01:30:50;16.80;15.20
939;DHT22;456;53.584;9.968;2024-01-30T01:33:16;16.80;15.30
939;DHT22;456;53.584;9.968;2024-01-30T01:35:42;16.80;15.20
939;DHT22;456;53.584;9.968;2024-01-30T01:38:08;16.90;15.30
939;DHT22;456;53.584;9.968;2024-01-30T01:40:34;16.90;15.30
939;DHT22;456;53.584;9.968;2024-01-30T01:43:03;16.80;15.30
939;DHT22;456;53.584;9.968;2024-01-30T01:45:28;16.80;15.20
939;DHT22;456;53.584;9.968;2024-01-30T01:47:54;16.80;15.30
939;DHT22;456;53.584;9.968;2024-01-30T01:50:21;16.80;15.30
939;DHT22;456;53.584;9.968;2024-01-30T01:52:50;16.80;15.60
939;DHT22;456;53.584;9.968;2024-01-30T01:55:17;16.80;15.30
939;DHT22;456;53.584;9.968;2024-01-30T01:57:44;16.80;15.30
939;DHT22;456;53.584;9.968;2024-01-30T02:00:10;16.80;15.30
939;DHT22;456;53.584;9.968;2024-01-30T02:02:37;16.80;15.30
939;DHT22;456;53.584;9.968;2024-01-30T02:11:48;16.80;15.30
939;DHT22;456;53.584;9.968;2024-01-30T02:14:14;16.80;15.40
939;DHT22;456;53.584;9.968;2024-01-30T02:16:40;16.80;15.40
939;DHT22;456;53.584;9.968;2024-01-30T02:19:05;16.80;15.40
939;DHT22;456;53.584;9.968;2024-01-30T02:21:33;16.80;15.40
939;DHT22;456;53.584;9.968;2024-01-30T02:23:59;16.80;15.50
939;DHT22;456;53.584;9.968;2024-01-30T02:26:25;16.80;15.40
939;DHT22;456;53.584;9.968;2024-01-30T02:28:50;16.80;15.40
939;DHT22;456;53.584;9.968;2024-01-30T02:31:16;16.80;15.50
939;DHT22;456;53.584;9.968;2024-01-30T02:33:41;16.80;15.50
939;DHT22;456;53.584;9.968;2024-01-30T02:36:07;16.80;15.50
939;DHT22;456;53.584;9.968;2024-01-30T02:38:33;16.80;15.50
939;DHT22;456;53.584;9.968;2024-01-30T02:40:58;16.80;15.60
939;DHT22;456;53.584;9.968;2024-01-30T02:43:24;16.80;15.60
939;DHT22;456;53.584;9.968;2024-01-30T02:45:49;16.80;15.70
939;DHT22;456;53.584;9.968;2024-01-30T02:48:15;16.80;15.60
939;DHT22;456;53.584;9.968;2024-01-30T02:50:40;16.80;15.70
939;DHT22;456;53.584;9.968;2024-01-30T02:53:06;16.80;15.70
939;DHT22;456;53.584;9.968;2024-01-30T02:55:32;16.80;15.70
939;DHT22;456;53.584;9.968;2024-01-30T02:57:57;16.70;15.70
939;DHT22;456;53.584;9.968;2024-01-30T03:00:23;16.80;15.90
939;DHT22;456;53.584;9.968;2024-01-30T03:02:49;16.80;16.40
939;DHT22;456;53.584;9.968;2024-01-30T03:05:14;16.70;15.70
939;DHT22;456;53.584;9.968;2024-01-30T03:07:40;16.70;15.80
939;DHT22;456;53.584;9.968;2024-01-30T03:10:06;16.70;15.80
939;DHT22;456;53.584;9.968;2024-01-30T03:12:32;16.80;15.90
939;DHT22;456;53.584;9.968;2024-01-30T03:14:58;16.70;15.80
939;DHT22;456;53.584;9.968;2024-01-30T03:17:23;16.70;15.80
939;DHT22;456;53.584;9.968;2024-01-30T03:19:49;16.70;15.80
939;DHT22;456;53.584;9.968;2024-01-30T03:22:15;16.70;15.80
939;DHT22;456;53.584;9.968;2024-01-30T03:24:41;16.70;15.80
939;DHT22;456;53.584;9.968;2024-01-30T03:27:06;16.70;15.80
939;DHT22;456;53.584;9.968;2024-01-30T03:29:32;16.70;15.90
939;DHT22;456;53.584;9.968;2024-01-30T03:31:58;16.70;15.80
939;DHT22;456;53.584;9.968;2024-01-30T03:34:23;16.70;15.80
939;DHT22;456;53.584;9.968;2024-01-30T03:36:49;16.70;15.80
939;DHT22;456;53.584;9.968;2024-01-30T03:39:14;16.70;15.80
939;DHT22;456;53.584;9.968;2024-01-30T03:41:42;16.70;15.80
939;DHT22;456;53.584;9.968;2024-01-30T03:44:08;16.70;15.80
939;DHT22;456;53.584;9.968;2024-01-30T03:46:34;16.70;15.80
939;DHT22;456;53.584;9.968;2024-01-30T03:48:59;16.70;15.80
939;DHT22;456;53.584;9.968;2024-01-30T03:51:25;16.70;15.80
939;DHT22;456;53.584;9.968;2024-01-30T03:53:51;16.70;15.80
939;DHT22;456;53.584;9.968;2024-01-30T03:56:16;16.70;15.80
939;DHT22;456;53.584;9.968;2024-01-30T03:58:42;16.70;15.80
939;DHT22;456;53.584;9.968;2024-01-30T04:01:12;16.70;15.80
939;DHT22;456;53.584;9.968;2024-01-30T04:03:38;16.70;15.80
939;DHT22;456;53.584;9.968;2024-01-30T04:06:04;16.70;15.80
939;DHT22;456;53.584;9.968;2024-01-30T04:08:29;16.70;15.80
939;DHT22;456;53.584;9.968;2024-01-30T04:10:55;16.70;15.80
939;DHT22;456;53.584;9.968;2024-01-30T04:13:21;16.70;15.80
939;DHT22;456;53.584;9.968;2024-01-30T04:15:46;16.70;15.80
939;DHT22;456;53.584;9.968;2024-01-30T04:18:12;16.70;15.80
939;DHT22;456;53.584;9.968;2024-01-30T04:20:37;16.70;15.90
939;DHT22;456;53.584;9.968;2024-01-30T04:23:03;16.70;15.80
939;DHT22;456;53.584;9.968;2024-01-30T04:25:29;16.70;15.80
939;DHT22;456;53.584;9.968;2024-01-30T04:27:54;16.70;15.80
939;DHT22;456;53.584;9.968;2024-01-30T04:30:20;16.70;15.80
939;DHT22;456;53.584;9.968;2024-01-30T04:32:45;16.70;15.80
939;DHT22;456;53.584;9.968;2024-01-30T04:35:11;16.70;15.80
939;DHT22;456;53.584;9.968;2024-01-30T04:37:36;16.70;15.80
939;DHT22;456;53.584;9.968;2024-01-30T04:40:02;16.70;15.80
939;DHT22;456;53.584;9.968;2024-01-30T04:42:28;16.70;15.80
939;DHT22;456;53.584;9.968;2024-01-30T04:44:54;16.70;15.90
939;DHT22;456;53.584;9.968;2024-01-30T04:47:19;16.70;15.80
939;DHT22;456;53.584;9.968;2024-01-30T04:49:45;16.70;15.80
939;DHT22;456;53.584;9.968;2024-01-30T04:52:10;16.70;15.80
939;DHT22;456;53.584;9.968;2024-01-30T04:54:36;16.70;15.80
939;DHT22;456;53.584;9.968;2024-01-30T04:57:02;16.80;15.90
939;DHT22;456;53.584;9.968;2024-01-30T04:59:28;16.80;15.90
939;DHT22;456;53.584;9.968;2024-01-30T05:01:54;16.80;15.90
939;DHT22;456;53.584;9.968;2024-01-30T05:04:20;16.90;16.00
939;DHT22;456;53.584;9.968;2024-01-30T05:06:46;17.00;16.00
939;DHT22;456;53.584;9.968;2024-01-30T05:09:11;17.00;16.00
939;DHT22;456;53.584;9.968;2024-01-30T05:11:38;17.10;16.10
939;DHT22;456;53.584;9.968;2024-01-30T05:14:05;17.10;16.10
939;DHT22;456;53.584;9.968;2024-01-30T05:16:31;17.10;16.10
939;DHT22;456;53.584;9.968;2024-01-30T05:18:56;17.20;16.20
939;DHT22;456;53.584;9.968;2024-01-30T05:21:22;17.20;16.20
939;DHT22;456;53.584;9.968;2024-01-30T05:23:47;17.20;16.70
939;DHT22;456;53.584;9.968;2024-01-30T05:26:13;17.20;16.20
939;DHT22;456;53.584;9.968;2024-01-30T05:28:38;17.20;16.20
939;DHT22;456;53.584;9.968;2024-01-30T05:31:04;17.30;16.20
939;DHT22;456;53.584;9.968;2024-01-30T05:33:30;17.30;16.20
939;DHT22;456;53.584;9.968;2024-01-30T05:35:55;17.30;16.20
939;DHT22;456;53.584;9.968;2024-01-30T05:38:21;17.30;16.20
939;DHT22;456;53.584;9.968;2024-01-30T05:40:46;17.30;16.20
939;DHT22;456;53.584;9.968;2024-01-30T05:43:12;17.30;16.20
939;DHT22;456;53.584;9.968;2024-01-30T05:45:38;17.40;16.30
939;DHT22;456;53.584;9.968;2024-01-30T05:48:04;17.40;16.30
939;DHT22;456;53.584;9.968;2024-01-30T05:50:30;17.40;16.30
939;DHT22;456;53.584;9.968;2024-01-30T05:52:56;17.40;16.30
939;DHT22;456;53.584;9.968;2024-01-30T05:55:21;17.40;16.30
939;DHT22;456;53.584;9.968;2024-01-30T05:57:47;17.40;16.30
939;DHT22;456;53.584;9.968;2024-01-30T06:00:13;17.40;16.30
939;DHT22;456;53.584;9.968;2024-01-30T06:02:39;17.40;16.30
939;DHT22;456;53.584;9.968;2024-01-30T06:05:04;17.40;16.30
939;DHT22;456;53.584;9.968;2024-01-30T06:07:30;17.40;16.30
939;DHT22;456;53.584;9.968;2024-01-30T06:09:55;17.40;16.30
939;DHT22;456;53.584;9.968;2024-01-30T06:12:21;17.40;16.30
939;DHT22;456;53.584;9.968;2024-01-30T06:14:47;17.40;16.30
939;DHT22;456;53.584;9.968;2024-01-30T06:17:12;17.40;16.30
939;DHT22;456;53.584;9.968;2024-01-30T06:19:38;17.50;16.40
939;DHT22;456;53.584;9.968;2024-01-30T06:22:04;17.40;16.70
939;DHT22;456;53.584;9.968;2024-01-30T06:24:30;17.50;16.70
939;DHT22;456;53.584;9.968;2024-01-30T06:26:56;17.50;16.70
939;DHT22;456;53.584;9.968;2024-01-30T06:29:21;17.40;16.50
939;DHT22;456;53.584;9.968;2024-01-30T06:31:47;17.50;17.10
939;DHT22;456;53.584;9.968;2024-01-30T06:34:12;17.50;16.40
939;DHT22;456;53.584;9.968;2024-01-30T06:36:38;17.50;16.60
939;DHT22;456;53.584;9.968;2024-01-30T06:39:04;17.50;16.40
939;DHT22;456;53.584;9.968;2024-01-30T06:41:30;17.50;16.70
939;DHT22;456;53.584;9.968;2024-01-30T06:43:56;17.50;16.60
939;DHT22;456;53.584;9.968;2024-01-30T06:46:22;17.50;16.70
939;DHT22;456;53.584;9.968;2024-01-30T06:48:47;17.50;16.50
939;DHT22;456;53.584;9.968;2024-01-30T06:51:13;17.50;16.40
939;DHT22;456;53.584;9.968;2024-01-30T06:53:39;17.50;16.40
939;DHT22;456;53.584;9.968;2024-01-30T06:56:05;17.50;16.40
939;DHT22;456;53.584;9.968;2024-01-30T06:58:31;17.50;16.40
939;DHT22;456;53.584;9.968;2024-01-30T07:00:57;17.50;16.40
939;DHT22;456;53.584;9.968;2024-01-30T07:03:23;17.40;16.30
939;DHT22;456;53.584;9.968;2024-01-30T07:05:48;17.40;16.30
939;DHT22;456;53.584;9.968;2024-01-30T07:08:15;17.40;16.30
939;DHT22;456;53.584;9.968;2024-01-30T07:10:43;17.40;16.30
939;DHT22;456;53.584;9.968;2024-01-30T07:13:09;17.40;16.30
939;DHT22;456;53.584;9.968;2024-01-30T07:15:35;17.40;16.30
939;DHT22;456;53.584;9.968;2024-01-30T07:18:02;17.40;16.30
939;DHT22;456;53.584;9.968;2024-01-30T07:20:28;17.40;16.30
939;DHT22;456;53.584;9.968;2024-01-30T07:22:56;17.40;16.30
939;DHT22;456;53.584;9.968;2024-01-30T07:25:21;17.40;16.30
939;DHT22;456;53.584;9.968;2024-01-30T07:27:54;17.40;16.30
939;DHT22;456;53.584;9.968;2024-01-30T07:30:20;17.40;16.30
939;DHT22;456;53.584;9.968;2024-01-30T07:32:46;17.40;16.30
939;DHT22;456;53.584;9.968;2024-01-30T07:35:13;17.40;16.30
939;DHT22;456;53.584;9.968;2024-01-30T07:37:39;17.40;16.30
939;DHT22;456;53.584;9.968;2024-01-30T07:40:05;17.30;16.20
939;DHT22;456;53.584;9.968;2024-01-30T07:42:32;17.30;16.20
939;DHT22;456;53.584;9.968;2024-01-30T07:44:57;17.30;16.20
939;DHT22;456;53.584;9.968;2024-01-30T07:47:23;17.30;16.20
939;DHT22;456;53.584;9.968;2024-01-30T07:49:49;17.30;16.20
939;DHT22;456;53.584;9.968;2024-01-30T07:52:14;17.30;16.20
939;DHT22;456;53.584;9.968;2024-01-30T07:54:49;17.20;16.20
939;DHT22;456;53.584;9.968;2024-01-30T07:57:15;17.20;16.20
939;DHT22;456;53.584;9.968;2024-01-30T07:59:44;17.20;16.20
939;DHT22;456;53.584;9.968;2024-01-30T08:02:13;17.30;16.20
939;DHT22;456;53.584;9.968;2024-01-30T08:04:39;17.20;16.20
939;DHT22;456;53.584;9.968;2024-01-30T08:07:04;17.20;16.20
939;DHT22;456;53.584;9.968;2024-01-30T08:09:30;17.20;25.10
939;DHT22;456;53.584;9.968;2024-01-30T08:11:55;17.30;24.70
939;DHT22;456;53.584;9.968;2024-01-30T08:14:21;17.30;24.50
939;DHT22;456;53.584;9.968;2024-01-30T08:16:47;17.20;24.30
939;DHT22;456;53.584;9.968;2024-01-30T08:19:13;17.20;24.40
939;DHT22;456;53.584;9.968;2024-01-30T08:21:39;17.20;24.30
939;DHT22;456;53.584;9.968;2024-01-30T08:24:05;17.20;24.30
939;DHT22;456;53.584;9.968;2024-01-30T08:26:32;17.20;24.40
939;DHT22;456;53.584;9.968;2024-01-30T08:28:58;17.20;24.30
939;DHT22;456;53.584;9.968;2024-01-30T08:31:23;17.20;24.50
939;DHT22;456;53.584;9.968;2024-01-30T08:33:49;17.30;24.30
939;DHT22;456;53.584;9.968;2024-01-30T08:36:16;17.30;24.20
939;DHT22;456;53.584;9.968;2024-01-30T08:38:41;17.30;24.20
939;DHT22;456;53.584;9.968;2024-01-30T08:41:07;17.20;24.10
939;DHT22;456;53.584;9.968;2024-01-30T08:43:33;17.20;23.90
939;DHT22;456;53.584;9.968;2024-01-30T08:45:59;17.30;23.90
939;DHT22;456;53.584;9.968;2024-01-30T08:48:25;17.20;24.00
939;DHT22;456;53.584;9.968;2024-01-30T08:50:51;17.20;23.90
939;DHT22;456;53.584;9.968;2024-01-30T08:53:17;17.20;24.00
939;DHT22;456;53.584;9.968;2024-01-30T08:55:42;17.20;23.90
939;DHT22;456;53.584;9.968;2024-01-30T08:58:08;17.20;24.30
939;DHT22;456;53.584;9.968;2024-01-30T09:00:33;17.20;23.80
939;DHT22;456;53.584;9.968;2024-01-30T09:02:59;17.10;23.70
939;DHT22;456;53.584;9.968;2024-01-30T09:05:24;17.20;23.70
939;DHT22;456;53.584;9.968;2024-01-30T09:07:50;17.20;23.70
939;DHT22;456;53.584;9.968;2024-01-30T09:10:15;17.20;23.30
939;DHT22;456;53.584;9.968;2024-01-30T09:12:41;17.20;23.20
939;DHT22;456;53.584;9.968;2024-01-30T09:15:07;17.20;23.10
939;DHT22;456;53.584;9.968;2024-01-30T09:17:33;17.20;23.30
939;DHT22;456;53.584;9.968;2024-01-30T09:19:58;17.20;23.40
939;DHT22;456;53.584;9.968;2024-01-30T09:22:24;17.20;23.20
939;DHT22;456;53.584;9.968;2024-01-30T09:24:50;17.20;22.90
939;DHT22;456;53.584;9.968;2024-01-30T09:27:15;17.20;22.90
939;DHT22;456;53.584;9.968;2024-01-30T09:29:41;17.20;23.00
939;DHT22;456;53.584;9.968;2024-01-30T09:32:07;17.20;23.00
939;DHT22;456;53.584;9.968;2024-01-30T09:34:32;17.20;23.00
939;DHT22;456;53.584;9.968;2024-01-30T09:36:59;17.10;22.90
939;DHT22;456;53.584;9.968;2024-01-30T09:39:25;17.20;22.90
939;DHT22;456;53.584;9.968;2024-01-30T09:42:14;17.20;22.80
939;DHT22;456;53.584;9.968;2024-01-30T09:44:43;17.10;22.70
939;DHT22;456;53.584;9.968;2024-01-30T09:47:10;17.10;22.70
939;DHT22;456;53.584;9.968;2024-01-30T09:49:35;17.10;22.70
939;DHT22;456;53.584;9.968;2024-01-30T09:52:02;17.10;22.70
939;DHT22;456;53.584;9.968;2024-01-30T09:54:32;17.10;22.70
939;DHT22;456;53.584;9.968;2024-01-30T09:56:58;17.10;22.70
939;DHT22;456;53.584;9.968;2024-01-30T09:59:24;17.10;22.60
939;DHT22;456;53.584;9.968;2024-01-30T10:01:50;17.10;22.60
939;DHT22;456;53.584;9.968;2024-01-30T10:04:16;17.10;22.50
939;DHT22;456;53.584;9.968;2024-01-30T10:06:42;17.10;22.50
939;DHT22;456;53.584;9.968;2024-01-30T10:09:07;17.10;22.50
939;DHT22;456;53.584;9.968;2024-01-30T10:11:35;17.10;22.50
939;DHT22;456;53.584;9.968;2024-01-30T10:14:01;17.10;22.50
939;DHT22;456;53.584;9.968;2024-01-30T10:16:27;17.10;22.50
939;DHT22;456;53.584;9.968;2024-01-30T10:18:52;17.10;22.60
939;DHT22;456;53.584;9.968;2024-01-30T10:21:18;17.00;22.50
939;DHT22;456;53.584;9.968;2024-01-30T10:23:44;17.10;22.50
939;DHT22;456;53.584;9.968;2024-01-30T10:26:12;17.00;22.40
939;DHT22;456;53.584;9.968;2024-01-30T10:28:39;17.10;22.50
939;DHT22;456;53.584;9.968;2024-01-30T10:31:04;17.10;22.50
939;DHT22;456;53.584;9.968;2024-01-30T10:33:30;17.10;22.50
939;DHT22;456;53.584;9.968;2024-01-30T10:36:03;17.10;22.40
939;DHT22;456;53.584;9.968;2024-01-30T10:38:30;17.00;22.40
939;DHT22;456;53.584;9.968;2024-01-30T10:40:57;17.00;22.40
939;DHT22;456;53.584;9.968;2024-01-30T10:43:28;17.00;22.40
939;DHT22;456;53.584;9.968;2024-01-30T10:45:57;17.00;22.40
939;DHT22;456;53.584;9.968;2024-01-30T10:48:29;17.00;22.40
939;DHT22;456;53.584;9.968;2024-01-30T10:50:55;17.00;22.40
939;DHT22;456;53.584;9.968;2024-01-30T10:53:22;17.00;22.20
939;DHT22;456;53.584;9.968;2024-01-30T10:55:51;17.00;22.30
939;DHT22;456;53.584;9.968;2024-01-30T10:58:18;17.00;22.40
939;DHT22;456;53.584;9.968;2024-01-30T11:00:44;17.00;22.30
939;DHT22;456;53.584;9.968;2024-01-30T11:03:11;17.00;22.40
939;DHT22;456;53.584;9.968;2024-01-30T11:05:40;17.00;22.30
939;DHT22;456;53.584;9.968;2024-01-30T11:08:13;17.00;22.10
939;DHT22;456;53.584;9.968;2024-01-30T11:10:48;17.00;22.10
939;DHT22;456;53.584;9.968;2024-01-30T11:13:14;17.00;22.10
939;DHT22;456;53.584;9.968;2024-01-30T11:15:40;17.00;22.10
939;DHT22;456;53.584;9.968;2024-01-30T11:18:06;17.00;22.10
939;DHT22;456;53.584;9.968;2024-01-30T11:20:32;17.00;22.10
939;DHT22;456;53.584;9.968;2024-01-30T11:22:59;17.00;22.10
939;DHT22;456;53.584;9.968;2024-01-30T11:25:25;17.00;22.80
939;DHT22;456;53.584;9.968;2024-01-30T11:27:52;17.00;22.20
939;DHT22;456;53.584;9.968;2024-01-30T11:30:28;16.90;22.20
939;DHT22;456;53.584;9.968;2024-01-30T11:33:10;16.90;22.20
939;DHT22;456;53.584;9.968;2024-01-30T11:35:37;16.90;22.10
939;DHT22;456;53.584;9.968;2024-01-30T11:38:04;17.00;22.20
939;DHT22;456;53.584;9.968;2024-01-30T11:40:31;16.90;22.20
939;DHT22;456;53.584;9.968;2024-01-30T11:42:59;16.90;22.20
939;DHT22;456;53.584;9.968;2024-01-30T11:45:26;16.90;22.20
939;DHT22;456;53.584;9.968;2024-01-30T11:47:53;16.90;22.20
939;DHT22;456;53.584;9.968;2024-01-30T11:50:19;16.90;22.20
939;DHT22;456;53.584;9.968;2024-01-30T11:52:44;16.90;22.20
939;DHT22;456;53.584;9.968;2024-01-30T11:55:10;16.90;22.20
939;DHT22;456;53.584;9.968;2024-01-30T11:57:36;16.90;22.30
939;DHT22;456;53.584;9.968;2024-01-30T12:00:05;16.90;22.30
939;DHT22;456;53.584;9.968;2024-01-30T12:02:41;16.90;22.30
939;DHT22;456;53.584;9.968;2024-01-30T12:05:07;16.90;22.30
939;DHT22;456;53.584;9.968;2024-01-30T12:07:33;16.90;22.40
939;DHT22;456;53.584;9.968;2024-01-30T12:09:59;16.90;22.30
939;DHT22;456;53.584;9.968;2024-01-30T12:12:26;16.90;22.30
939;DHT22;456;53.584;9.968;2024-01-30T12:14:52;16.90;22.30
939;DHT22;456;53.584;9.968;2024-01-30T12:17:31;16.90;22.30
939;DHT22;456;53.584;9.968;2024-01-30T12:20:11;16.90;22.90
939;DHT22;456;53.584;9.968;2024-01-30T12:25:11;16.90;22.30
939;DHT22;456;53.584;9.968;2024-01-30T12:27:38;16.90;22.30
939;DHT22;456;53.584;9.968;2024-01-30T12:30:08;16.90;22.30
939;DHT22;456;53.584;9.968;2024-01-30T12:32:35;16.90;22.40
939;DHT22;456;53.584;9.968;2024-01-30T12:35:01;16.90;22.50
939;DHT22;456;53.584;9.968;2024-01-30T12:37:27;16.90;22.40
939;DHT22;456;53.584;9.968;2024-01-30T12:39:55;16.90;22.40
939;DHT22;456;53.584;9.968;2024-01-30T12:42:21;16.90;22.50
939;DHT22;456;53.584;9.968;2024-01-30T12:44:48;16.90;22.50
939;DHT22;456;53.584;9.968;2024-01-30T12:47:14;16.90;22.50
939;DHT22;456;53.584;9.968;2024-01-30T12:49:44;16.90;22.40
939;DHT22;456;53.584;9.968;2024-01-30T12:52:14;16.90;22.50
939;DHT22;456;53.584;9.968;2024-01-30T12:54:40;16.90;22.60
939;DHT22;456;53.584;9.968;2024-01-30T12:57:05;16.90;22.50
939;DHT22;456;53.584;9.968;2024-01-30T12:59:31;16.90;22.50
939;DHT22;456;53.584;9.968;2024-01-30T13:01:58;16.90;22.50
939;DHT22;456;53.584;9.968;2024-01-30T13:04:24;16.90;22.50
939;DHT22;456;53.584;9.968;2024-01-30T13:06:49;16.80;22.50
939;DHT22;456;53.584;9.968;2024-01-30T13:09:15;16.80;22.50
939;DHT22;456;53.584;9.968;2024-01-30T13:11:41;16.90;22.60
939;DHT22;456;53.584;9.968;2024-01-30T13:14:06;16.90;22.50
939;DHT22;456;53.584;9.968;2024-01-30T13:16:32;16.90;22.60
939;DHT22;456;53.584;9.968;2024-01-30T13:18:58;16.80;22.60
939;DHT22;456;53.584;9.968;2024-01-30T13:21:23;16.90;22.60
939;DHT22;456;53.584;9.968;2024-01-30T13:23:49;16.80;22.60
939;DHT22;456;53.584;9.968;2024-01-30T13:26:18;16.80;22.50
939;DHT22;456;53.584;9.968;2024-01-30T13:28:44;16.80;22.60
939;DHT22;456;53.584;9.968;2024-01-30T13:31:09;16.80;22.60
939;DHT22;456;53.584;9.968;2024-01-30T13:33:35;16.90;22.70
939;DHT22;456;53.584;9.968;2024-01-30T13:36:01;16.80;22.60
939;DHT22;456;53.584;9.968;2024-01-30T13:38:26;16.80;22.70
939;DHT22;456;53.584;9.968;2024-01-30T13:40:52;16.80;22.70
939;DHT22;456;53.584;9.968;2024-01-30T13:43:17;16.80;22.70
939;DHT22;456;53.584;9.968;2024-01-30T13:45:43;16.80;22.70
939;DHT22;456;53.584;9.968;2024-01-30T13:48:09;16.80;22.70
939;DHT22;456;53.584;9.968;2024-01-30T13:50:34;16.80;22.80
939;DHT22;456;53.584;9.968;2024-01-30T13:53:01;16.80;22.80
939;DHT22;456;53.584;9.968;2024-01-30T13:55:27;16.80;22.80
939;DHT22;456;53.584;9.968;2024-01-30T13:57:52;16.80;22.80
939;DHT22;456;53.584;9.968;2024-01-30T14:00:18;16.80;22.90
939;DHT22;456;53.584;9.968;2024-01-30T14:02:44;16.80;22.90
939;DHT22;456;53.584;9.968;2024-01-30T14:05:09;16.80;22.90
939;DHT22;456;53.584;9.968;2024-01-30T14:07:38;16.80;22.80
939;DHT22;456;53.584;9.968;2024-01-30T14:10:09;16.80;22.80
939;DHT22;456;53.584;9.968;2024-01-30T14:12:36;16.80;22.90
939;DHT22;456;53.584;9.968;2024-01-30T14:15:02;16.80;23.00
939;DHT22;456;53.584;9.968;2024-01-30T14:17:27;16.80;23.00
939;DHT22;456;53.584;9.968;2024-01-30T14:19:53;16.80;23.10
939;DHT22;456;53.584;9.968;2024-01-30T14:22:18;16.80;22.90
939;DHT22;456;53.584;9.968;2024-01-30T14:24:44;16.80;22.80
939;DHT22;456;53.584;9.968;2024-01-30T14:27:10;16.90;22.60
939;DHT22;456;53.584;9.968;2024-01-30T14:29:36;16.90;22.40
939;DHT22;456;53.584;9.968;2024-01-30T14:32:02;17.00;22.30
939;DHT22;456;53.584;9.968;2024-01-30T14:34:29;17.00;22.30
939;DHT22;456;53.584;9.968;2024-01-30T14:36:55;17.10;22.30
939;DHT22;456;53.584;9.968;2024-01-30T14:39:20;17.10;22.30
939;DHT22;456;53.584;9.968;2024-01-30T14:41:46;17.10;22.30
939;DHT22;456;53.584;9.968;2024-01-30T14:44:11;17.10;22.20
939;DHT22;456;53.584;9.968;2024-01-30T14:46:37;17.10;22.20
939;DHT22;456;53.584;9.968;2024-01-30T14:49:03;17.10;22.10
939;DHT22;456;53.584;9.968;2024-01-30T14:51:31;17.10;22.10
939;DHT22;456;53.584;9.968;2024-01-30T14:53:56;17.10;22.10
939;DHT22;456;53.584;9.968;2024-01-30T14:56:22;17.10;22.10
939;DHT22;456;53.584;9.968;2024-01-30T14:58:48;17.10;22.10
939;DHT22;456;53.584;9.968;2024-01-30T15:01:14;17.10;22.10
939;DHT22;456;53.584;9.968;2024-01-30T15:03:39;17.10;22.10
939;DHT22;456;53.584;9.968;2024-01-30T15:06:06;17.20;22.30
939;DHT22;456;53.584;9.968;2024-01-30T15:08:32;17.10;22.30
939;DHT22;456;53.584;9.968;2024-01-30T15:10:58;17.20;22.30
939;DHT22;456;53.584;9.968;2024-01-30T15:13:24;17.20;22.40
939;DHT22;456;53.584;9.968;2024-01-30T15:15:49;17.20;22.40
939;DHT22;456;53.584;9.968;2024-01-30T15:18:15;17.20;22.30
939;DHT22;456;53.584;9.968;2024-01-30T15:20:41;17.20;22.30
939;DHT22;456;53.584;9.968;2024-01-30T15:23:06;17.20;22.40
939;DHT22;456;53.584;9.968;2024-01-30T15:25:32;17.20;22.30
939;DHT22;456;53.584;9.968;2024-01-30T15:27:57;17.20;22.30
939;DHT22;456;53.584;9.968;2024-01-30T15:30:23;17.20;22.30
939;DHT22;456;53.584;9.968;2024-01-30T15:32:48;17.20;22.30
939;DHT22;456;53.584;9.968;2024-01-30T15:35:14;17.20;22.30
939;DHT22;456;53.584;9.968;2024-01-30T15:37:40;17.20;22.30
939;DHT22;456;53.584;9.968;2024-01-30T15:40:06;17.20;22.30
939;DHT22;456;53.584;9.968;2024-01-30T15:42:32;17.20;22.30
939;DHT22;456;53.584;9.968;2024-01-30T15:44:58;17.30;22.40
939;DHT22;456;53.584;9.968;2024-01-30T15:47:24;17.30;22.50
939;DHT22;456;53.584;9.968;2024-01-30T15:49:50;17.30;22.50
939;DHT22;456;53.584;9.968;2024-01-30T15:52:15;17.30;22.50
939;DHT22;456;53.584;9.968;2024-01-30T15:54:43;17.30;22.40
939;DHT22;456;53.584;9.968;2024-01-30T15:57:09;17.30;22.30
939;DHT22;456;53.584;9.968;2024-01-30T15:59:35;17.30;22.30
939;DHT22;456;53.584;9.968;2024-01-30T16:02:01;17.30;22.30
939;DHT22;456;53.584;9.968;2024-01-30T16:04:27;17.30;22.30
939;DHT22;456;53.584;9.968;2024-01-30T16:06:52;17.30;22.10
939;DHT22;456;53.584;9.968;2024-01-30T16:09:18;17.30;22.30
939;DHT22;456;53.584;9.968;2024-01-30T16:11:43;17.30;22.30
939;DHT22;456;53.584;9.968;2024-01-30T16:14:09;17.30;22.40
939;DHT22;456;53.584;9.968;2024-01-30T16:16:35;17.30;22.40
939;DHT22;456;53.584;9.968;2024-01-30T16:19:00;17.30;22.40
939;DHT22;456;53.584;9.968;2024-01-30T16:21:26;17.30;22.40
939;DHT22;456;53.584;9.968;2024-01-30T16:23:52;17.30;22.40
939;DHT22;456;53.584;9.968;2024-01-30T16:26:19;17.30;22.40
939;DHT22;456;53.584;9.968;2024-01-30T16:28:45;17.30;22.30
939;DHT22;456;53.584;9.968;2024-01-30T16:31:10;17.30;22.40
939;DHT22;456;53.584;9.968;2024-01-30T16:33:36;17.30;22.30
939;DHT22;456;53.584;9.968;2024-01-30T16:36:01;17.30;22.30